Time;durP1;ratioP1;P1;durP2;ratioP2;P2;SDS_P1;SDS_P2;PMS_P1;PMS_P2;Temp;Humidity;BMP_temperature;BMP_pressure;BME280_temperature;BME280_humidity;BME280_pressure;Samples;Min_cycle;Max_cycle;Signal;HPM_P1;HPM_P2
2021/03/28 00:00:08;;;;;;;1999.90;999.90;;;6.30;99.90;;;;;;4982012;28;20226;-80
2021/03/28 00:02:51;;;;;;;1999.90;999.90;;;6.40;99.90;;;;;;4982197;28;20190;-80
2021/03/28 00:05:30;;;;;;;1999.90;999.90;;;6.40;99.90;;;;;;4981389;28;20650;-80
2021/03/28 00:08:14;;;;;;;1999.90;999.90;;;6.40;99.90;;;;;;4981203;28;20202;-80
2021/03/28 00:10:49;;;;;;;1999.90;999.90;;;6.40;99.90;;;;;;4980679;28;20154;-80
2021/03/28 00:13:25;;;;;;;1999.90;999.90;;;6.40;99.90;;;;;;4979432;28;20190;-80
2021/03/28 00:15:59;;;;;;;1999.90;999.90;;;6.50;99.90;;;;;;4981276;28;20159;-80
2021/03/28 00:18:28;;;;;;;1999.90;999.90;;;6.50;99.90;;;;;;4981659;28;20166;-80
2021/03/28 00:21:12;;;;;;;1999.90;999.90;;;6.60;99.90;;;;;;4980884;28;20172;-80
2021/03/28 00:24:00;;;;;;;1999.90;999.90;;;6.70;99.90;;;;;;4980869;28;20282;-80
2021/03/28 00:26:33;;;;;;;1999.90;999.90;;;6.80;99.90;;;;;;4979157;28;20279;-80
2021/03/28 00:29:26;;;;;;;1999.90;999.90;;;6.90;99.90;;;;;;4981238;28;20166;-80
2021/03/28 00:32:30;;;;;;;1999.90;999.90;;;6.90;99.90;;;;;;4980523;28;20230;-80
2021/03/28 00:35:07;;;;;;;1999.90;999.90;;;6.90;99.90;;;;;;4980808;28;20226;-80
2021/03/28 00:37:33;;;;;;;1999.90;999.90;;;6.90;99.90;;;;;;4980864;28;20198;-80
2021/03/28 00:40:22;;;;;;;1999.90;999.90;;;6.90;99.90;;;;;;4979398;28;20175;-80
2021/03/28 00:42:51;;;;;;;1999.90;999.90;;;6.90;99.90;;;;;;4980509;28;20155;-80
2021/03/28 00:45:33;;;;;;;1999.90;999.90;;;6.90;99.90;;;;;;4980671;28;20195;-80
2021/03/28 00:48:11;;;;;;;1999.90;999.90;;;7.10;99.90;;;;;;4979872;28;20209;-79
2021/03/28 00:50:56;;;;;;;1999.90;999.90;;;7.00;99.90;;;;;;4979194;28;20163;-80
2021/03/28 00:53:39;;;;;;;1999.90;999.90;;;7.00;99.90;;;;;;4979800;28;20156;-80
2021/03/28 00:56:20;;;;;;;1999.90;999.90;;;7.00;99.90;;;;;;4979681;28;20585;-80
2021/03/28 00:59:00;;;;;;;1999.90;999.90;;;6.90;99.90;;;;;;4980894;28;20232;-80
2021/03/28 01:01:39;;;;;;;1999.90;999.90;;;7.00;99.90;;;;;;4980803;28;20159;-80
2021/03/28 01:04:44;;;;;;;1999.90;999.90;;;7.00;99.90;;;;;;4980075;28;20187;-80
2021/03/28 01:07:09;;;;;;;1999.90;999.90;;;7.00;99.90;;;;;;4977717;28;20226;-80
2021/03/28 01:09:41;;;;;;;1999.90;999.90;;;7.10;99.90;;;;;;4979952;28;20171;-80
2021/03/28 01:12:28;;;;;;;1999.90;999.90;;;7.10;99.90;;;;;;4979831;28;20139;-80
2021/03/28 01:15:31;;;;;;;1999.90;999.90;;;7.10;99.90;;;;;;4979819;28;20185;-80
2021/03/28 01:18:01;;;;;;;1999.90;999.90;;;7.10;99.90;;;;;;4979721;28;20190;-80
2021/03/28 01:20:30;;;;;;;1999.90;999.90;;;7.10;99.90;;;;;;4980394;28;20167;-79
2021/03/28 01:23:15;;;;;;;1999.90;999.90;;;7.10;99.90;;;;;;4978227;28;20201;-80
2021/03/28 01:25:56;;;;;;;1999.90;999.90;;;7.10;99.90;;;;;;4979337;28;20646;-79
2021/03/28 01:28:40;;;;;;;1999.90;999.90;;;7.20;99.90;;;;;;4979045;28;20646;-80
2021/03/28 01:31:21;;;;;;;1999.90;999.90;;;7.30;99.90;;;;;;4979753;28;20167;-79
2021/03/28 01:33:59;;;;;;;1999.90;999.90;;;7.30;99.90;;;;;;4979858;28;20496;-80
2021/03/28 01:36:45;;;;;;;1999.90;999.90;;;7.30;99.90;;;;;;4978954;28;20193;-79
2021/03/28 01:39:48;;;;;;;1999.90;999.90;;;7.30;99.90;;;;;;4977576;28;20231;-79
2021/03/28 01:42:25;;;;;;;1999.90;999.90;;;7.30;99.90;;;;;;4979132;28;20174;-79
2021/03/28 01:45:26;;;;;;;1999.90;999.90;;;7.20;99.90;;;;;;4978573;28;20191;-80
2021/03/28 01:47:59;;;;;;;1999.90;999.90;;;7.30;99.90;;;;;;4968834;28;20203;-80
2021/03/28 01:50:46;;;;;;;1999.90;999.90;;;7.30;99.90;;;;;;4977766;28;20194;-80
2021/03/28 01:53:21;;;;;;;1999.90;999.90;;;7.30;99.90;;;;;;4978994;28;20191;-80
2021/03/28 01:56:21;;;;;;;1999.90;999.90;;;7.30;99.90;;;;;;4978519;28;20155;-79
2021/03/28 01:59:04;;;;;;;1999.90;999.90;;;7.30;99.90;;;;;;4978709;28;20168;-80
2021/03/28 02:01:44;;;;;;;1999.90;999.90;;;7.40;99.90;;;;;;4978486;28;20225;-80
2021/03/28 02:04:28;;;;;;;1999.90;999.90;;;7.40;99.90;;;;;;4978666;28;20191;-79
2021/03/28 02:07:23;;;;;;;1999.90;999.90;;;7.50;99.90;;;;;;4977168;28;20187;-79
2021/03/28 02:10:18;;;;;;;1999.90;999.90;;;7.50;99.90;;;;;;4977982;28;20182;-80
2021/03/28 02:12:51;;;;;;;1999.90;999.90;;;7.50;99.90;;;;;;4979210;28;20166;-80
2021/03/28 02:15:55;;;;;;;1999.90;999.90;;;7.40;99.90;;;;;;4978649;28;20159;-80
2021/03/28 02:18:39;;;;;;;1999.90;999.90;;;7.40;99.90;;;;;;4967873;28;20202;-80
2021/03/28 02:21:40;;;;;;;1999.90;999.90;;;7.40;99.90;;;;;;4978521;28;20217;-80
2021/03/28 02:24:24;;;;;;;1999.90;999.90;;;7.40;99.90;;;;;;4959428;28;20223;-79
2021/03/28 02:27:21;;;;;;;1999.90;999.90;;;7.40;99.90;;;;;;4977990;28;20183;-79
2021/03/28 02:29:51;;;;;;;1999.90;999.90;;;7.50;99.90;;;;;;4978393;28;20163;-80
2021/03/28 02:32:45;;;;;;;1999.90;999.90;;;7.40;99.90;;;;;;4978764;28;20247;-80
2021/03/28 02:35:46;;;;;;;1999.90;999.90;;;7.50;99.90;;;;;;4978554;28;20167;-79
2021/03/28 02:38:20;;;;;;;1999.90;999.90;;;7.40;99.90;;;;;;4947765;28;20187;-80
2021/03/28 02:41:11;;;;;;;1999.90;999.90;;;7.40;99.90;;;;;;4979008;28;20155;-80
2021/03/28 02:43:49;;;;;;;1999.90;999.90;;;7.30;99.90;;;;;;4977605;28;20222;-80
2021/03/28 02:46:36;;;;;;;1999.90;999.90;;;7.30;99.90;;;;;;4978633;28;20187;-80
2021/03/28 02:49:29;;;;;;;1999.90;999.90;;;7.20;99.90;;;;;;4979214;28;20154;-80
2021/03/28 02:52:04;;;;;;;1999.90;999.90;;;7.20;99.90;;;;;;4965670;28;20171;-80
2021/03/28 02:55:03;;;;;;;1999.90;999.90;;;7.00;99.90;;;;;;4983261;28;20163;-80
2021/03/28 02:58:07;;;;;;;1999.90;999.90;;;7.00;99.90;;;;;;4981699;28;20223;-80
2021/03/28 03:01:14;;;;;;;1999.90;999.90;;;6.90;99.90;;;;;;4972428;28;20269;-80
2021/03/28 03:03:43;;;;;;;1999.90;999.90;;;6.90;99.90;;;;;;4982936;28;20187;-80
2021/03/28 03:06:32;;;;;;;1999.90;999.90;;;6.90;99.90;;;;;;4982600;28;20183;-80
2021/03/28 03:09:08;;;;;;;1999.90;999.90;;;6.90;99.90;;;;;;4982919;28;20250;-80
2021/03/28 03:12:05;;;;;;;1999.90;999.90;;;6.90;99.90;;;;;;4982532;28;20638;-80
2021/03/28 03:14:42;;;;;;;1999.90;999.90;;;6.90;99.90;;;;;;4982718;28;20159;-80
2021/03/28 03:17:47;;;;;;;1999.90;999.90;;;6.80;99.90;;;;;;4981348;28;20187;-80
2021/03/28 03:20:49;;;;;;;1999.90;999.90;;;6.70;99.90;;;;;;4922776;29;20176;-80
2021/03/28 03:23:39;;;;;;;1999.90;999.90;;;6.70;99.90;;;;;;4922606;29;20553;-80
2021/03/28 03:26:15;;;;;;;1999.90;999.90;;;6.60;99.90;;;;;;4975774;28;20203;-80
2021/03/28 03:29:38;;;;;;;1999.90;999.90;;;6.50;99.90;;;;;;4982362;28;20618;-80
2021/03/28 03:32:34;;;;;;;1999.90;999.90;;;6.50;99.90;;;;;;4922373;29;20270;-80
2021/03/28 03:35:05;;;;;;;1999.90;999.90;;;6.40;99.90;;;;;;4921777;29;20166;-80
2021/03/28 03:37:57;;;;;;;1999.90;999.90;;;6.40;99.90;;;;;;4964300;28;20670;-80
2021/03/28 03:41:11;;;;;;;1999.90;999.90;;;6.30;99.90;;;;;;4982199;28;20519;-80
2021/03/28 03:43:42;;;;;;;1999.90;999.90;;;6.30;99.90;;;;;;4922073;28;20207;-80
2021/03/28 03:46:28;;;;;;;1999.90;999.90;;;6.30;99.90;;;;;;4981373;28;20187;-80
2021/03/28 03:49:22;;;;;;;1999.90;999.90;;;6.30;99.90;;;;;;4980249;28;20508;-80
2021/03/28 03:52:00;;;;;;;1999.90;999.90;;;6.30;99.90;;;;;;4981349;28;20299;-80
2021/03/28 03:54:54;;;;;;;1999.90;999.90;;;6.30;99.90;;;;;;4980926;28;20170;-80
2021/03/28 03:57:29;;;;;;;1999.90;999.90;;;6.30;99.90;;;;;;4981524;28;20183;-80
2021/03/28 04:00:01;;;;;;;1999.90;999.90;;;6.40;99.90;;;;;;4980926;28;20163;-80
2021/03/28 04:02:31;;;;;;;1999.90;999.90;;;6.40;99.90;;;;;;4978825;28;20175;-80
2021/03/28 04:05:25;;;;;;;1999.90;999.90;;;6.40;99.90;;;;;;4981565;28;20183;-79
2021/03/28 04:08:02;;;;;;;1999.90;999.90;;;6.30;99.90;;;;;;4981209;28;20203;-80
2021/03/28 04:11:06;;;;;;;1999.90;999.90;;;6.30;99.90;;;;;;4980898;28;20148;-80
2021/03/28 04:13:54;;;;;;;1999.90;999.90;;;6.40;99.90;;;;;;4979515;28;20202;-80
2021/03/28 04:16:42;;;;;;;1999.90;999.90;;;6.40;99.90;;;;;;4980217;28;20198;-79
2021/03/28 04:19:23;;;;;;;1999.90;999.90;;;6.40;99.90;;;;;;4980723;28;20167;-79
2021/03/28 04:22:10;;;;;;;1999.90;999.90;;;6.50;99.90;;;;;;4980726;28;20194;-79
2021/03/28 04:25:07;;;;;;;1999.90;999.90;;;6.50;99.90;;;;;;4980719;28;20189;-79
2021/03/28 04:28:06;;;;;;;1999.90;999.90;;;6.60;99.90;;;;;;4979508;28;20187;-79
2021/03/28 04:30:57;;;;;;;1999.90;999.90;;;6.60;99.90;;;;;;4980077;28;20152;-79
2021/03/28 04:33:52;;;;;;;1999.90;999.90;;;6.70;99.90;;;;;;4980943;28;20156;-79
2021/03/28 04:36:41;;;;;;;1999.90;999.90;;;6.60;99.90;;;;;;4979715;28;20187;-80
2021/03/28 04:39:15;;;;;;;1999.90;999.90;;;6.70;99.90;;;;;;4939690;28;20183;-80
2021/03/28 04:42:18;;;;;;;1999.90;999.90;;;6.70;99.90;;;;;;4980564;28;20143;-79
2021/03/28 04:45:11;;;;;;;1999.90;999.90;;;6.70;99.90;;;;;;4979697;28;20265;-79
2021/03/28 04:47:42;;;;;;;1999.90;999.90;;;6.70;99.90;;;;;;4980391;28;20191;-79
2021/03/28 04:50:38;;;;;;;1999.90;999.90;;;6.70;99.90;;;;;;4978766;28;20172;-79
2021/03/28 04:53:29;;;;;;;1999.90;999.90;;;6.70;99.90;;;;;;4979931;28;20159;-79
2021/03/28 04:56:32;;;;;;;1999.90;999.90;;;6.80;99.90;;;;;;4979628;28;20238;-80
2021/03/28 04:59:17;;;;;;;1999.90;999.90;;;6.80;99.90;;;;;;4979987;28;20163;-79
2021/03/28 05:02:00;;;;;;;1999.90;999.90;;;6.90;99.90;;;;;;4978858;28;20163;-80
2021/03/28 05:04:38;;;;;;;1999.90;999.90;;;6.90;99.90;;;;;;4978062;28;20194;-79
2021/03/28 05:07:28;;;;;;;1999.90;999.90;;;6.90;99.90;;;;;;4979539;28;20183;-79
2021/03/28 05:10:29;;;;;;;1999.90;999.90;;;6.80;99.90;;;;;;4979589;28;20155;-79
2021/03/28 05:12:57;;;;;;;1999.90;999.90;;;6.80;99.90;;;;;;4978999;28;20154;-80
2021/03/28 05:15:31;;;;;;;1999.90;999.90;;;6.90;99.90;;;;;;4979727;28;20198;-80
2021/03/28 05:18:21;;;;;;;1999.90;999.90;;;7.00;99.90;;;;;;4979729;28;20218;-80
2021/03/28 05:20:58;;;;;;;1999.90;999.90;;;7.00;99.90;;;;;;4979296;28;20164;-80
2021/03/28 05:24:02;;;;;;;1999.90;999.90;;;7.00;99.90;;;;;;4978715;28;20615;-79
2021/03/28 05:26:43;;;;;;;1999.90;999.90;;;7.00;99.90;;;;;;4978097;28;20183;-79
2021/03/28 05:29:23;;;;;;;1999.90;999.90;;;7.10;99.90;;;;;;4976969;28;20190;-80
2021/03/28 05:32:14;;;;;;;1999.90;999.90;;;7.10;99.90;;;;;;4979165;28;20167;-80
2021/03/28 05:35:34;;;;;;;1999.90;999.90;;;7.00;99.90;;;;;;4963613;28;20171;-80
2021/03/28 05:38:52;;;;;;;1999.90;999.90;;;7.00;99.90;;;;;;4921252;29;20558;-80
2021/03/28 05:41:34;;;;;;;1999.90;999.90;;;7.10;99.90;;;;;;4955153;28;20206;-80
2021/03/28 05:44:18;;;;;;;1999.90;999.90;;;7.10;99.90;;;;;;4980022;28;20179;-80
2021/03/28 05:47:06;;;;;;;1999.90;999.90;;;7.10;99.90;;;;;;4980081;28;20219;-80
2021/03/28 05:49:55;;;;;;;1999.90;999.90;;;7.20;99.90;;;;;;4978617;28;20218;-80
2021/03/28 05:52:39;;;;;;;1999.90;999.90;;;7.20;99.90;;;;;;4979534;28;20182;-80
2021/03/28 05:55:34;;;;;;;1999.90;999.90;;;7.20;99.90;;;;;;4978584;28;20167;-80
2021/03/28 05:58:23;;;;;;;1999.90;999.90;;;7.20;99.90;;;;;;4978384;28;20163;-80
2021/03/28 06:01:05;;;;;;;1999.90;999.90;;;7.30;99.90;;;;;;4951812;28;20266;-80
2021/03/28 06:03:55;;;;;;;1999.90;999.90;;;7.40;99.90;;;;;;4979940;28;20186;-80
2021/03/28 06:06:39;;;;;;;1999.90;999.90;;;7.40;99.90;;;;;;4979291;28;20187;-80
2021/03/28 06:09:32;;;;;;;1999.90;999.90;;;7.50;99.90;;;;;;4979603;28;20167;-80
2021/03/28 06:12:35;;;;;;;1999.90;999.90;;;7.50;99.90;;;;;;4978970;28;20147;-80
2021/03/28 06:15:44;;;;;;;1999.90;999.90;;;7.60;99.90;;;;;;4977889;28;20171;-80
2021/03/28 06:18:31;;;;;;;1999.90;999.90;;;7.60;99.90;;;;;;4979863;28;20203;-80
2021/03/28 06:21:12;;;;;;;1999.90;999.90;;;7.70;99.90;;;;;;4979321;28;20179;-80
2021/03/28 06:23:47;;;;;;;1999.90;999.90;;;7.80;99.90;;;;;;4979731;28;20205;-80
2021/03/28 06:26:37;;;;;;;1999.90;999.90;;;7.80;99.90;;;;;;4983872;28;20206;-80
2021/03/28 06:29:39;;;;;;;1999.90;999.90;;;7.90;99.90;;;;;;4981328;28;20542;-80
2021/03/28 06:32:30;;;;;;;1999.90;999.90;;;8.00;99.90;;;;;;4982373;28;20171;-80
2021/03/28 06:35:23;;;;;;;1999.90;999.90;;;8.10;99.90;;;;;;4982137;28;20166;-80
2021/03/28 06:38:19;;;;;;;1999.90;999.90;;;8.10;99.90;;;;;;4983452;28;20183;-80
2021/03/28 06:40:50;;;;;;;1999.90;999.90;;;8.10;99.90;;;;;;4983934;28;20183;-80
2021/03/28 06:43:25;;;;;;;1999.90;999.90;;;8.20;99.90;;;;;;4981198;28;20183;-80
2021/03/28 06:46:32;;;;;;;1999.90;999.90;;;8.20;99.90;;;;;;4982664;28;20614;-80
2021/03/28 06:49:18;;;;;;;1999.90;999.90;;;8.30;99.90;;;;;;4955479;28;20183;-80
2021/03/28 06:52:12;;;;;;;1999.90;999.90;;;8.30;99.90;;;;;;4980902;28;20175;-80
2021/03/28 06:54:56;;;;;;;1999.90;999.90;;;8.30;99.90;;;;;;4982344;28;20171;-80
2021/03/28 06:57:40;;;;;;;1999.90;999.90;;;8.30;99.90;;;;;;4980734;28;20213;-80
2021/03/28 07:00:20;;;;;;;1999.90;999.90;;;8.30;99.90;;;;;;4983136;28;20208;-80
2021/03/28 07:03:24;;;;;;;1999.90;999.90;;;8.30;99.90;;;;;;4982367;28;20163;-80
2021/03/28 07:06:06;;;;;;;1999.90;999.90;;;8.40;99.90;;;;;;4981902;28;20167;-79
2021/03/28 07:08:53;;;;;;;1999.90;999.90;;;8.40;99.90;;;;;;4983036;28;20511;-80
2021/03/28 07:11:25;;;;;;;1999.90;999.90;;;8.50;99.90;;;;;;4982179;28;20155;-78
2021/03/28 07:14:15;;;;;;;1999.90;999.90;;;8.50;99.90;;;;;;4981298;28;20191;-80
2021/03/28 07:17:12;;;;;;;1999.90;999.90;;;8.60;99.90;;;;;;4981151;28;20203;-80
2021/03/28 07:20:16;;;;;;;1999.90;999.90;;;8.70;99.90;;;;;;4980786;28;20179;-80
2021/03/28 07:23:11;;;;;;;1999.90;999.90;;;8.80;99.90;;;;;;4981325;28;20565;-80
2021/03/28 07:26:11;;;;;;;1999.90;999.90;;;8.80;99.90;;;;;;4980223;28;20295;-79
2021/03/28 07:28:39;;;;;;;1999.90;999.90;;;8.90;99.90;;;;;;4980425;28;20199;-80
2021/03/28 07:31:38;;;;;;;1999.90;999.90;;;9.00;99.90;;;;;;4981538;28;20168;-80
2021/03/28 07:34:21;;;;;;;1999.90;999.90;;;9.00;99.90;;;;;;4963502;28;20175;-80
2021/03/28 07:37:29;;;;;;;1999.90;999.90;;;9.10;99.90;;;;;;4979713;28;20188;-80
2021/03/28 07:40:26;;;;;;;1999.90;999.90;;;9.20;99.90;;;;;;4972560;28;20187;-80
2021/03/28 07:42:55;;;;;;;1999.90;999.90;;;9.20;99.90;;;;;;4981071;28;20233;-80
2021/03/28 07:45:39;;;;;;;1999.90;999.90;;;9.30;99.90;;;;;;4964086;28;20674;-80
2021/03/28 07:48:10;;;;;;;1999.90;999.90;;;9.30;99.90;;;;;;4981636;28;20163;-80
2021/03/28 07:50:56;;;;;;;1999.90;999.90;;;9.30;99.90;;;;;;4981448;28;20152;-80
2021/03/28 07:53:40;;;;;;;1999.90;999.90;;;9.40;99.90;;;;;;4980199;28;20166;-80
2021/03/28 07:56:14;;;;;;;1999.90;999.90;;;9.40;99.90;;;;;;4981986;28;20274;-80
2021/03/28 07:58:51;;;;;;;1999.90;999.90;;;9.40;99.90;;;;;;4982345;28;20667;-80
2021/03/28 08:01:17;;;;;;;1999.90;999.90;;;9.50;99.90;;;;;;4981601;28;20166;-80
2021/03/28 08:03:46;;;;;;;1999.90;999.90;;;9.60;99.90;;;;;;4980298;28;20693;-80
2021/03/28 08:06:32;;;;;;;1999.90;999.90;;;9.80;99.90;;;;;;4980013;28;20187;-80
2021/03/28 08:09:13;;;;;;;1999.90;999.90;;;9.80;99.90;;;;;;4979960;28;20171;-79
2021/03/28 08:11:56;;;;;;;1999.90;999.90;;;9.90;99.90;;;;;;4981640;28;20163;-80
2021/03/28 08:14:53;;;;;;;1999.90;999.90;;;10.00;99.90;;;;;;4981434;28;20167;-80
2021/03/28 08:17:42;;;;;;;1999.90;999.90;;;10.00;99.90;;;;;;4979904;28;20290;-80
2021/03/28 08:20:26;;;;;;;1999.90;999.90;;;10.20;99.90;;;;;;4979567;28;20183;-80
2021/03/28 08:23:30;;;;;;;1999.90;999.90;;;10.20;99.90;;;;;;4963614;28;20218;-80
2021/03/28 08:26:38;;;;;;;1999.90;999.90;;;10.20;99.90;;;;;;4981362;28;20678;-80
2021/03/28 08:29:25;;;;;;;1999.90;999.90;;;10.30;99.90;;;;;;4979700;28;20167;-80
2021/03/28 08:31:55;;;;;;;1999.90;999.90;;;10.50;99.90;;;;;;4980368;28;20171;-80
2021/03/28 08:34:58;;;;;;;1999.90;999.90;;;10.60;99.90;;;;;;4979888;28;20203;-80
2021/03/28 08:37:56;;;;;;;1999.90;999.90;;;10.70;99.90;;;;;;4980454;28;20185;-80
2021/03/28 08:40:50;;;;;;;1999.90;999.90;;;10.70;99.90;;;;;;4912118;28;20200;-80
2021/03/28 08:43:53;;;;;;;1999.90;999.90;;;10.80;99.90;;;;;;4980439;28;20167;-80
2021/03/28 08:46:52;;;;;;;1999.90;999.90;;;10.80;99.90;;;;;;4979844;28;20182;-80
2021/03/28 08:49:54;;;;;;;1999.90;999.90;;;10.80;99.90;;;;;;4979157;28;20609;-80
2021/03/28 08:52:55;;;;;;;1999.90;999.90;;;10.90;99.90;;;;;;4980749;28;20152;-80
2021/03/28 08:55:39;;;;;;;1999.90;999.90;;;11.00;99.90;;;;;;4980801;28;20261;-80
2021/03/28 08:58:21;;;;;;;1999.90;999.90;;;11.10;99.90;;;;;;4979113;28;20167;-80
2021/03/28 09:01:09;;;;;;;1999.90;999.90;;;11.30;99.90;;;;;;4979501;28;20187;-80
2021/03/28 09:04:02;;;;;;;1999.90;999.90;;;11.40;99.90;;;;;;5050679;23;20230;-85
2021/03/28 09:06:46;;;;;;;1999.90;999.90;;;11.60;99.90;;;;;;4987604;28;20215;-85
2021/03/28 09:09:53;;;;;;;1999.90;999.90;;;11.80;99.70;;;;;;4987746;28;20167;-85
2021/03/28 09:12:33;;;;;;;1999.90;999.90;;;11.70;97.70;;;;;;4987923;28;20250;-85
2021/03/28 09:15:18;;;;;;;1999.90;999.90;;;11.70;98.20;;;;;;4987897;28;20224;-85
2021/03/28 09:18:22;;;;;;;1999.90;999.90;;;11.60;99.00;;;;;;4986061;28;20195;-85
2021/03/28 09:20:53;;;;;;;1999.90;999.90;;;11.70;99.90;;;;;;4987426;28;20146;-86
2021/03/28 09:23:34;;;;;;;1999.90;999.90;;;11.70;98.60;;;;;;4987622;28;20566;-85
2021/03/28 09:26:05;;;;;;;1999.90;999.90;;;11.70;99.90;;;;;;4987258;28;20183;-85
2021/03/28 09:28:46;;;;;;;1999.90;999.90;;;11.80;99.90;;;;;;4987470;28;20245;-85
2021/03/28 09:31:37;;;;;;;1999.90;999.90;;;12.00;99.90;;;;;;4987534;28;20148;-85
2021/03/28 09:34:24;;;;;;;1999.90;999.90;;;12.20;99.80;;;;;;4987426;28;20519;-85
2021/03/28 09:37:21;;;;;;;1999.90;999.90;;;12.10;99.90;;;;;;4986722;28;20200;-85
2021/03/28 09:40:14;;;;;;;1999.90;999.90;;;12.30;99.90;;;;;;4984961;28;20167;-85
2021/03/28 09:43:02;;;;;;;1999.90;999.90;;;12.50;98.50;;;;;;4984623;28;20560;-85
2021/03/28 09:45:27;;;;;;;1999.90;999.90;;;12.60;95.80;;;;;;4984606;28;20187;-85
2021/03/28 09:47:53;;;;;;;1999.90;999.90;;;12.70;92.00;;;;;;4986565;28;20183;-85
2021/03/28 09:50:43;;;;;;;1999.90;999.90;;;12.70;90.10;;;;;;4986890;28;20195;-85
2021/03/28 09:53:46;;;;;;;1999.90;999.90;;;12.90;90.60;;;;;;4984290;28;20159;-85
2021/03/28 09:56:31;;;;;;;1999.90;999.90;;;13.00;86.00;;;;;;4984695;28;20211;-85
2021/03/28 09:59:27;;;;;;;1999.90;999.90;;;13.20;87.10;;;;;;4982288;28;20167;-85
2021/03/28 10:02:16;;;;;;;1999.90;999.90;;;13.20;87.00;;;;;;4984688;28;20174;-85
2021/03/28 10:04:56;;;;;;;1999.90;999.90;;;13.30;76.60;;;;;;4985051;28;20218;-85
2021/03/28 10:07:42;;;;;;;1999.90;999.90;;;13.50;76.30;;;;;;4984604;28;20532;-85
2021/03/28 10:10:22;;;;;;;1999.90;999.90;;;13.70;81.90;;;;;;4984637;28;20176;-85
2021/03/28 10:13:13;;;;;;;1999.90;999.90;;;13.80;81.20;;;;;;4983707;28;20163;-85
2021/03/28 10:16:10;;;;;;;1999.90;999.90;;;13.90;63.30;;;;;;4984963;28;20163;-86
2021/03/28 10:18:55;;;;;;;1999.90;999.90;;;13.90;51.40;;;;;;4936113;28;20183;-85
2021/03/28 10:21:36;;;;;;;1999.90;999.90;;;13.80;63.90;;;;;;4986388;28;20222;-85
2021/03/28 10:24:12;;;;;;;1999.90;999.90;;;13.80;57.00;;;;;;4986818;28;20194;-86
2021/03/28 10:26:54;;;;;;;1999.90;999.90;;;13.80;50.30;;;;;;4985510;28;20183;-85
2021/03/28 10:29:41;;;;;;;1999.90;999.90;;;14.00;45.60;;;;;;4984259;28;20167;-85
2021/03/28 10:32:13;;;;;;;1999.90;999.90;;;13.90;45.10;;;;;;4967233;28;20167;-85
2021/03/28 10:35:20;;;;;;;1999.90;999.90;;;13.80;42.60;;;;;;4984456;28;20202;-85
2021/03/28 10:38:08;;;;;;;1999.90;999.90;;;13.80;35.40;;;;;;4985431;28;20187;-86
2021/03/28 10:41:03;;;;;;;1999.90;999.90;;;14.00;34.60;;;;;;4985666;28;20235;-86
2021/03/28 10:43:47;;;;;;;1999.90;999.90;;;13.90;31.60;;;;;;4985910;28;20160;-85
2021/03/28 10:46:44;;;;;;;1999.90;999.90;;;13.90;29.90;;;;;;4985931;28;20528;-86
2021/03/28 10:49:13;;;;;;;1999.90;999.90;;;13.80;28.00;;;;;;4957538;28;20635;-86
2021/03/28 10:52:10;;;;;;;1999.90;999.90;;;13.90;24.60;;;;;;4984033;28;20167;-86
2021/03/28 10:55:03;;;;;;;1999.90;999.90;;;14.30;27.80;;;;;;4985590;28;20228;-86
2021/03/28 10:58:06;;;;;;;1999.90;999.90;;;14.90;22.90;;;;;;4968020;28;20195;-86
2021/03/28 11:00:52;;;;;;;1999.90;999.90;;;15.30;15.50;;;;;;4985316;28;20179;-86
2021/03/28 11:03:36;;;;;;;1999.90;999.90;;;15.50;8.60;;;;;;4985677;28;20450;-86
2021/03/28 11:06:16;;;;;;;1999.90;999.90;;;15.50;6.90;;;;;;4985788;28;20686;-85
2021/03/28 11:09:01;;;;;;;1999.90;999.90;;;15.40;5.40;;;;;;4984629;28;20405;-86
2021/03/28 11:11:59;;;;;;;1999.90;999.90;;;15.50;8.60;;;;;;4987276;28;20814;-86
2021/03/28 11:14:50;;;;;;;1999.90;999.90;;;15.80;8.70;;;;;;4988734;28;20410;-86
2021/03/28 11:18:04;;;;;;;1999.90;999.90;;;15.80;1.90;;;;;;4990218;28;20418;-86
2021/03/28 11:20:30;;;;;;;1999.90;999.90;;;15.80;1.30;;;;;;4990005;28;20387;-86
2021/03/28 11:23:33;;;;;;;1999.90;999.90;;;15.80;1.00;;;;;;4989436;28;20408;-86
2021/03/28 11:26:18;;;;;;;1999.90;999.90;;;16.00;1.00;;;;;;4989057;28;20253;-85
2021/03/28 11:29:05;;;;;;;1999.90;999.90;;;16.10;1.00;;;;;;4989202;28;20398;-83
2021/03/28 11:31:53;;;;;;;1999.90;999.90;;;16.40;1.00;;;;;;4982684;28;20390;-83
2021/03/28 11:34:26;;;;;;;1999.90;999.90;;;16.60;1.00;;;;;;4975860;28;20403;-83
2021/03/28 11:37:21;;;;;;;1999.90;999.90;;;16.70;1.00;;;;;;4983444;28;20439;-83
2021/03/28 11:40:17;;;;;;;1999.90;999.90;;;16.70;1.00;;;;;;4984055;28;20438;-82
2021/03/28 11:42:45;;;;;;;1999.90;999.90;;;16.60;1.00;;;;;;4986264;28;20395;-83
2021/03/28 11:45:26;;;;;;;1999.90;999.90;;;16.50;1.00;;;;;;4986167;28;20478;-83
2021/03/28 11:47:54;;;;;;;1999.90;999.90;;;16.40;1.00;;;;;;4987478;28;20419;-83
2021/03/28 11:50:38;;;;;;;1999.90;999.90;;;16.30;1.00;;;;;;4987235;28;20407;-82
2021/03/28 11:53:25;;;;;;;1999.90;999.90;;;16.30;1.00;;;;;;4987995;28;20387;-82
2021/03/28 11:55:57;;;;;;;1999.90;999.90;;;16.10;1.00;;;;;;4986770;28;20412;-81
2021/03/28 11:58:25;;;;;;;1999.90;999.90;;;16.10;1.00;;;;;;4971260;28;20387;-82
2021/03/28 12:00:56;;;;;;;1999.90;999.90;;;16.20;1.00;;;;;;4987667;28;20468;-82
2021/03/28 12:03:31;;;;;;;1999.90;999.90;;;16.20;1.00;;;;;;4984580;28;20447;-88
2021/03/28 12:06:21;;;;;;;1999.90;999.90;;;16.40;1.00;;;;;;4981190;28;20429;-86
2021/03/28 12:08:46;;;;;;;1999.90;999.90;;;16.40;1.00;;;;;;4962478;28;20406;-86
2021/03/28 12:11:45;;;;;;;1999.90;999.90;;;16.70;1.00;;;;;;4977328;28;20399;-88
2021/03/28 12:14:28;;;;;;;1999.90;999.90;;;16.80;1.00;;;;;;4975806;28;20241;-87
2021/03/28 12:17:09;;;;;;;1999.90;999.90;;;17.00;1.00;;;;;;4977477;28;20431;-88
2021/03/28 12:19:51;;;;;;;1999.90;999.90;;;16.90;1.00;;;;;;4976430;28;20408;-88
2021/03/28 12:22:28;;;;;;;1999.90;999.90;;;16.90;1.00;;;;;;4977270;28;20472;-88
2021/03/28 12:25:04;;;;;;;1999.90;999.90;;;16.70;1.00;;;;;;4977359;28;20526;-88
2021/03/28 12:27:37;;;;;;;1999.90;999.90;;;16.80;1.00;;;;;;4976003;28;20435;-88
2021/03/28 12:30:24;;;;;;;1999.90;999.90;;;16.80;1.00;;;;;;4978394;28;20391;-88
2021/03/28 12:33:09;;;;;;;1999.90;999.90;;;16.90;1.00;;;;;;4978809;28;20417;-86
2021/03/28 12:35:47;;;;;;;1999.90;999.90;;;17.10;1.00;;;;;;4977751;28;20393;-88
2021/03/28 12:38:40;;;;;;;1999.90;999.90;;;17.20;1.00;;;;;;4977866;28;20411;-86
2021/03/28 12:41:25;;;;;;;1999.90;999.90;;;17.40;1.00;;;;;;4976765;28;20408;-87
2021/03/28 12:43:58;;;;;;;1999.90;999.90;;;17.50;1.00;;;;;;4976638;28;20456;-87
2021/03/28 12:46:27;;;;;;;1999.90;999.90;;;17.50;1.00;;;;;;4978191;28;20510;-88
2021/03/28 12:49:32;;;;;;;1999.90;999.90;;;17.40;1.00;;;;;;4976228;28;20829;-87
2021/03/28 12:52:19;;;;;;;1999.90;999.90;;;17.20;1.00;;;;;;4976803;28;20403;-89
2021/03/28 12:54:56;;;;;;;1999.90;999.90;;;17.10;1.00;;;;;;4975677;28;20476;-89
2021/03/28 12:57:52;;;;;;;1999.90;999.90;;;17.10;1.00;;;;;;4976495;28;20458;-89
2021/03/28 13:00:51;;;;;;;1999.90;999.90;;;17.10;1.00;;;;;;4960022;28;20791;-88
2021/03/28 13:03:43;;;;;;;1999.90;999.90;;;17.10;1.00;;;;;;4976044;28;20438;-89
2021/03/28 13:06:18;;;;;;;1999.90;999.90;;;17.10;1.00;;;;;;4975711;28;21027;-88
2021/03/28 13:09:00;;;;;;;1999.90;999.90;;;17.20;1.00;;;;;;4975357;28;20485;-89
2021/03/28 13:11:54;;;;;;;1999.90;999.90;;;17.30;1.00;;;;;;4974497;28;20416;-88
2021/03/28 13:15:13;;;;;;;1999.90;999.90;;;17.30;1.00;;;;;;4975811;28;20910;-86
2021/03/28 13:17:41;;;;;;;1999.90;999.90;;;17.20;1.00;;;;;;4926814;28;20440;-89
2021/03/28 13:20:34;;;;;;;1999.90;999.90;;;17.30;1.00;;;;;;4977291;28;20387;-88
2021/03/28 13:23:59;;;;;;;1999.90;999.90;;;17.10;1.00;;;;;;4975139;28;20414;-89
2021/03/28 13:26:54;;;;;;;1999.90;999.90;;;17.10;1.00;;;;;;4915785;29;20970;-88
2021/03/28 13:30:20;;;;;;;1999.90;999.90;;;17.10;1.00;;;;;;4888985;29;20928;-88
2021/03/28 13:33:13;;;;;;;1999.90;999.90;;;17.10;1.00;;;;;;4859132;29;20538;-88
2021/03/28 13:43:20;;;;;;;1999.90;999.90;;;17.30;1.00;;;;;;4858499;29;20455;-91
2021/03/28 13:50:11;;;;;;;1999.90;999.90;;;17.20;1.00;;;;;;4823805;29;20421;-90
2021/03/28 15:04:26;;;;;;;1999.90;999.90;;;17.10;1.00;;;;;;5689784;23;21016;-83